Coral Coast — WDF5120 — position and weather

sailwx.info

Track history (hours):
 
Tides and Currents Weather Stations Pressure Air Temp Water Temp Dewpoint Dewpoint Depression Visibility Wind Speed Wind Dir Waves Ship Positions

Coral Coast

Owner: Dann MarineTowing, LC., Chesapeake City, MD. More information available from US FCC via Universal Licensing System and Coast Guard Vessel Documentation Center.

Last reported at 2016-Jul-30 16:33 UTC. Time now 2016-Jul-30 16:51 UTC.
Position N 40°28' W 073°54'.

Length 70 m; draft 5.3 m.

Type: Tug. MMSI: 367459570.

Date/timePositionNaut miles runAvg speedWind from/ knotsBaromVisibWave heightAir tempDewpointWater temp
2016-Jul-30 16:33N 40°28' W 073°54'21 6.5
2016-Jul-30 13:18N 40°07' W 073°56'11 6.3
2016-Jul-30 11:29N 39°56' W 073°57'5 5.8
2016-Jul-30 10:33N 39°51' W 073°58'6 5.7
2016-Jul-30 09:33N 39°45' W 073°59'6 5.9
2016-Jul-30 08:30N 39°39' W 074°02'6 6.0
2016-Jul-30 07:32N 39°34' W 074°05'6 6.4
2016-Jul-30 06:33N 39°28' W 074°09'7 6.5
2016-Jul-30 05:32N 39°23' W 074°14'7 6.6
2016-Jul-30 04:29N 39°18' W 074°20'6 6.6
2016-Jul-30 03:33N 39°14' W 074°26'7 6.7
2016-Jul-30 02:33N 39°09' W 074°32'7 6.7
2016-Jul-30 01:33N 39°04' W 074°37'7 7.2
2016-Jul-30 00:33N 38°58' W 074°43'19 4.6
2016-Jul-29 20:22N 38°58' W 075°07'5 5.8
2016-Jul-29 19:33N 39°03' W 075°10'6 6.5
2016-Jul-29 18:34N 39°08' W 075°14'8 7.8
2016-Jul-29 17:33N 39°15' W 075°19'10 9.8
2016-Jul-29 16:33N 39°22' W 075°28'7 6.7
2016-Jul-29 15:34N 39°27' W 075°33'9 9.3
2016-Jul-29 14:34N 39°36' W 075°34'8 8.1
2016-Jul-29 13:34N 39°44' W 075°30'7 7.0
2016-Jul-29 12:34N 39°49' W 075°24'6 6.3
2016-Jul-29 11:33N 39°51' W 075°16'6 5.9
2016-Jul-29 10:33N 39°53' W 075°09'2 2.2
2016-Jul-29 09:33N 39°55' W 075°08'0 0.0
2016-Jul-29 08:33N 39°55' W 075°08'0 0.0
2016-Jul-29 07:33N 39°55' W 075°08'0 0.0
2016-Jul-29 06:33N 39°55' W 075°08'0 0.0
2016-Jul-29 05:33N 39°55' W 075°08'0 0.0
2016-Jul-29 04:34N 39°55' W 075°08'0 0.0
2016-Jul-29 03:33N 39°55' W 075°08'0 0.0
2016-Jul-29 02:33N 39°55' W 075°08'0 0.0
2016-Jul-29 01:34N 39°55' W 075°08'0 0.0
2016-Jul-29 00:33N 39°55' W 075°08'0 0.0
2016-Jul-28 23:33N 39°55' W 075°08'0 0.0
2016-Jul-28 22:33N 39°55' W 075°08'0 0.0
2016-Jul-28 21:34N 39°55' W 075°08'0 0.0
2016-Jul-28 20:34N 39°55' W 075°08'2 1.6
2016-Jul-28 19:34N 39°53' W 075°08'4 3.8
2016-Jul-28 18:33N 39°52' W 075°13'6 5.7
2016-Jul-28 17:34N 39°51' W 075°20'7 7.3
2016-Jul-28 16:34N 39°47' W 075°28'6 5.6
2016-Jul-28 15:33N 39°42' W 075°31'6 6.0
2016-Jul-28 14:34N 39°36' W 075°34'6 6.4
2016-Jul-28 13:34N 39°30' W 075°34'6 6.1
2016-Jul-28 12:34N 39°24' W 075°30'7 7.4
2016-Jul-28 11:33N 39°19' W 075°24'8 8.0
2016-Jul-28 10:33N 39°12' W 075°17'9 8.7
2016-Jul-28 09:34N 39°05' W 075°11'9 8.6
2016-Jul-28 08:33N 38°57' W 075°06'9 8.9
2016-Jul-28 07:33N 38°49' W 075°02'9 9.1
2016-Jul-28 06:34N 38°50' W 074°50'9 9.0
2016-Jul-28 05:34N 38°57' W 074°43'9 9.3
2016-Jul-28 04:33N 39°05' W 074°36'9 8.6
2016-Jul-28 03:28N 39°12' W 074°28'12 9.1
2016-Jul-28 02:11N 39°20' W 074°18'8 9.3
2016-Jul-28 01:20N 39°26' W 074°11'7 9.3
2016-Jul-28 00:34N 39°33' W 074°07'10 9.3
2016-Jul-27 23:30N 39°42' W 074°02'9 9.4
2016-Jul-27 22:33N 39°51' W 073°59'23 9.5
2016-Jul-27 20:07N 40°13' W 073°54'5 9.7
2016-Jul-27 19:33N 40°19' W 073°54'10 9.5
2016-Jul-27 18:28N 40°29' W 073°55'7 8.2
2016-Jul-27 17:34N 40°34' W 074°02'6 5.7
2016-Jul-27 16:34N 40°40' W 074°01'1 0.6
2016-Jul-27 15:34N 40°40' W 074°00'0 0.0
2016-Jul-27 14:33N 40°40' W 074°00'0 0.0
2016-Jul-27 13:33N 40°40' W 074°00'0 0.0
2016-Jul-27 12:34N 40°40' W 074°00'0 0.0
2016-Jul-27 11:34N 40°40' W 074°00'0 0.0
2016-Jul-27 10:34N 40°40' W 074°00'0 0.0
2016-Jul-27 09:33N 40°40' W 074°00'0 0.0
2016-Jul-27 08:33N 40°40' W 074°00'0 0.0
2016-Jul-27 07:33N 40°40' W 074°00'0 0.0
2016-Jul-27 06:34N 40°40' W 074°00'0 0.0
2016-Jul-27 05:34N 40°40' W 074°00'0 0.0
2016-Jul-27 04:34N 40°40' W 074°00'0 0.0
2016-Jul-27 03:33N 40°40' W 074°00'1 0.7
2016-Jul-27 02:34N 40°40' W 074°01'3 3.4
2016-Jul-27 01:33N 40°39' W 074°05'0 0.0
2016-Jul-27 00:34N 40°39' W 074°05'0 0.0
2016-Jul-26 23:34N 40°39' W 074°05'1 0.6
2016-Jul-26 22:33N 40°39' W 074°06'5 4.8
2016-Jul-26 21:34N 40°40' W 074°00'1 1.4
2016-Jul-26 20:34N 40°41' W 074°02'6 6.0
2016-Jul-26 19:34N 40°46' W 073°60'1 0.0
2016-Jul-24 17:11N 40°47' W 073°59'711.3
2016-Jul-24 16:34N 40°40' W 074°01'1 1.1
2016-Jul-24 15:33N 40°40' W 074°00'0 0.0
2016-Jul-24 14:33N 40°40' W 074°00'0 0.0
2016-Jul-24 13:34N 40°40' W 074°00'0 0.0
2016-Jul-24 12:33N 40°40' W 074°00'0 0.0
2016-Jul-24 11:33N 40°40' W 074°00'0 0.0
2016-Jul-24 10:33N 40°40' W 074°00'0 0.0
2016-Jul-24 09:34N 40°40' W 074°00'0 0.0
2016-Jul-24 08:34N 40°40' W 074°00'0 0.0
2016-Jul-24 07:34N 40°40' W 074°00'2 2.1
2016-Jul-24 06:34N 40°42' W 074°00'8 8.0
2016-Jul-24 05:33N 40°48' W 073°53'1 0.1
2016-Jul-23 04:18N 40°47' W 073°52'5 7.4
2016-Jul-23 03:33N 40°45' W 073°58'2 2.3
2016-Jul-23 02:34N 40°45' W 074°01'4 4.2
2016-Jul-23 01:33N 40°49' W 073°59'4 3.4
2016-Jul-23 00:22N 40°52' W 073°56'  
Track history (hours):
 
Tides and Currents Weather Stations Pressure Air Temp Water Temp Dewpoint Dewpoint Depression Visibility Wind Speed Wind Dir Waves Ship Positions

Coral Coast

Owner: Dann MarineTowing, LC., Chesapeake City, MD. More information available from US FCC via Universal Licensing System and Coast Guard Vessel Documentation Center.

Last reported at 2016-Jul-30 16:33 UTC. Time now 2016-Jul-30 16:51 UTC.
Position N 40°28' W 073°54'.

Length 70 m; draft 5.3 m.

Type: Tug. MMSI: 367459570.

Date/timePositionNaut miles runAvg speedWind from/ knotsBaromVisibWave heightAir tempDewpointWater temp
2016-Jul-30 16:33N 40°28' W 073°54'21 6.5
2016-Jul-30 13:18N 40°07' W 073°56'11 6.3
2016-Jul-30 11:29N 39°56' W 073°57'5 5.8
2016-Jul-30 10:33N 39°51' W 073°58'6 5.7
2016-Jul-30 09:33N 39°45' W 073°59'6 5.9
2016-Jul-30 08:30N 39°39' W 074°02'6 6.0
2016-Jul-30 07:32N 39°34' W 074°05'6 6.4
2016-Jul-30 06:33N 39°28' W 074°09'7 6.5
2016-Jul-30 05:32N 39°23' W 074°14'7 6.6
2016-Jul-30 04:29N 39°18' W 074°20'6 6.6
2016-Jul-30 03:33N 39°14' W 074°26'7 6.7
2016-Jul-30 02:33N 39°09' W 074°32'7 6.7
2016-Jul-30 01:33N 39°04' W 074°37'7 7.2
2016-Jul-30 00:33N 38°58' W 074°43'19 4.6
2016-Jul-29 20:22N 38°58' W 075°07'5 5.8
2016-Jul-29 19:33N 39°03' W 075°10'6 6.5
2016-Jul-29 18:34N 39°08' W 075°14'8 7.8
2016-Jul-29 17:33N 39°15' W 075°19'10 9.8
2016-Jul-29 16:33N 39°22' W 075°28'7 6.7
2016-Jul-29 15:34N 39°27' W 075°33'9 9.3
2016-Jul-29 14:34N 39°36' W 075°34'8 8.1
2016-Jul-29 13:34N 39°44' W 075°30'7 7.0
2016-Jul-29 12:34N 39°49' W 075°24'6 6.3
2016-Jul-29 11:33N 39°51' W 075°16'6 5.9
2016-Jul-29 10:33N 39°53' W 075°09'2 2.2
2016-Jul-29 09:33N 39°55' W 075°08'0 0.0
2016-Jul-29 08:33N 39°55' W 075°08'0 0.0
2016-Jul-29 07:33N 39°55' W 075°08'0 0.0
2016-Jul-29 06:33N 39°55' W 075°08'0 0.0
2016-Jul-29 05:33N 39°55' W 075°08'0 0.0
2016-Jul-29 04:34N 39°55' W 075°08'0 0.0
2016-Jul-29 03:33N 39°55' W 075°08'0 0.0
2016-Jul-29 02:33N 39°55' W 075°08'0 0.0
2016-Jul-29 01:34N 39°55' W 075°08'0 0.0
2016-Jul-29 00:33N 39°55' W 075°08'0 0.0
2016-Jul-28 23:33N 39°55' W 075°08'0 0.0
2016-Jul-28 22:33N 39°55' W 075°08'0 0.0
2016-Jul-28 21:34N 39°55' W 075°08'0 0.0
2016-Jul-28 20:34N 39°55' W 075°08'2 1.6
2016-Jul-28 19:34N 39°53' W 075°08'4 3.8
2016-Jul-28 18:33N 39°52' W 075°13'6 5.7
2016-Jul-28 17:34N 39°51' W 075°20'7 7.3
2016-Jul-28 16:34N 39°47' W 075°28'6 5.6
2016-Jul-28 15:33N 39°42' W 075°31'6 6.0
2016-Jul-28 14:34N 39°36' W 075°34'6 6.4
2016-Jul-28 13:34N 39°30' W 075°34'6 6.1
2016-Jul-28 12:34N 39°24' W 075°30'7 7.4
2016-Jul-28 11:33N 39°19' W 075°24'8 8.0
2016-Jul-28 10:33N 39°12' W 075°17'9 8.7
2016-Jul-28 09:34N 39°05' W 075°11'9 8.6
2016-Jul-28 08:33N 38°57' W 075°06'9 8.9
2016-Jul-28 07:33N 38°49' W 075°02'9 9.1
2016-Jul-28 06:34N 38°50' W 074°50'9 9.0
2016-Jul-28 05:34N 38°57' W 074°43'9 9.3
2016-Jul-28 04:33N 39°05' W 074°36'9 8.6
2016-Jul-28 03:28N 39°12' W 074°28'12 9.1
2016-Jul-28 02:11N 39°20' W 074°18'8 9.3
2016-Jul-28 01:20N 39°26' W 074°11'7 9.3
2016-Jul-28 00:34N 39°33' W 074°07'10 9.3
2016-Jul-27 23:30N 39°42' W 074°02'9 9.4
2016-Jul-27 22:33N 39°51' W 073°59'23 9.5
2016-Jul-27 20:07N 40°13' W 073°54'5 9.7
2016-Jul-27 19:33N 40°19' W 073°54'10 9.5
2016-Jul-27 18:28N 40°29' W 073°55'7 8.2
2016-Jul-27 17:34N 40°34' W 074°02'6 5.7
2016-Jul-27 16:34N 40°40' W 074°01'1 0.6
2016-Jul-27 15:34N 40°40' W 074°00'0 0.0
2016-Jul-27 14:33N 40°40' W 074°00'0 0.0
2016-Jul-27 13:33N 40°40' W 074°00'0 0.0
2016-Jul-27 12:34N 40°40' W 074°00'0 0.0
2016-Jul-27 11:34N 40°40' W 074°00'0 0.0
2016-Jul-27 10:34N 40°40' W 074°00'0 0.0
2016-Jul-27 09:33N 40°40' W 074°00'0 0.0
2016-Jul-27 08:33N 40°40' W 074°00'0 0.0
2016-Jul-27 07:33N 40°40' W 074°00'0 0.0
2016-Jul-27 06:34N 40°40' W 074°00'0 0.0
2016-Jul-27 05:34N 40°40' W 074°00'0 0.0
2016-Jul-27 04:34N 40°40' W 074°00'0 0.0
2016-Jul-27 03:33N 40°40' W 074°00'1 0.7
2016-Jul-27 02:34N 40°40' W 074°01'3 3.4
2016-Jul-27 01:33N 40°39' W 074°05'0 0.0
2016-Jul-27 00:34N 40°39' W 074°05'0 0.0
2016-Jul-26 23:34N 40°39' W 074°05'1 0.6
2016-Jul-26 22:33N 40°39' W 074°06'5 4.8
2016-Jul-26 21:34N 40°40' W 074°00'1 1.4
2016-Jul-26 20:34N 40°41' W 074°02'6 6.0
2016-Jul-26 19:34N 40°46' W 073°60'1 0.0
2016-Jul-24 17:11N 40°47' W 073°59'711.3
2016-Jul-24 16:34N 40°40' W 074°01'1 1.1
2016-Jul-24 15:33N 40°40' W 074°00'0 0.0
2016-Jul-24 14:33N 40°40' W 074°00'0 0.0
2016-Jul-24 13:34N 40°40' W 074°00'0 0.0
2016-Jul-24 12:33N 40°40' W 074°00'0 0.0
2016-Jul-24 11:33N 40°40' W 074°00'0 0.0
2016-Jul-24 10:33N 40°40' W 074°00'0 0.0
2016-Jul-24 09:34N 40°40' W 074°00'0 0.0
2016-Jul-24 08:34N 40°40' W 074°00'0 0.0
2016-Jul-24 07:34N 40°40' W 074°00'2 2.1
2016-Jul-24 06:34N 40°42' W 074°00'8 8.0
2016-Jul-24 05:33N 40°48' W 073°53'1 0.1
2016-Jul-23 04:18N 40°47' W 073°52'5 7.4
2016-Jul-23 03:33N 40°45' W 073°58'2 2.3
2016-Jul-23 02:34N 40°45' W 074°01'4 4.2
2016-Jul-23 01:33N 40°49' W 073°59'4 3.4
2016-Jul-23 00:22N 40°52' W 073°56'  

Dump ship's entire track history